createdAt,value
2023-02-16T00:00:29.261Z,3.20
2023-02-16T00:02:56.590Z,3.25
2023-02-16T00:05:28.994Z,3.20
2023-02-16T00:07:58.066Z,3.25
2023-02-16T00:10:31.398Z,3.20
2023-02-16T00:13:17.263Z,3.23
2023-02-16T00:15:44.354Z,3.20
2023-02-16T00:18:22.048Z,3.20
2023-02-16T00:20:49.843Z,3.22
2023-02-16T00:23:17.102Z,3.20
2023-02-16T00:25:44.158Z,3.28
2023-02-16T00:28:19.651Z,3.27
2023-02-16T00:30:47.617Z,3.28
2023-02-16T00:33:21.673Z,3.22
2023-02-16T00:35:49.380Z,3.30
2023-02-16T00:38:16.843Z,3.30
2023-02-16T00:40:44.534Z,3.20
2023-02-16T00:43:27.151Z,3.30
2023-02-16T00:45:55.319Z,3.27
2023-02-16T00:48:24.239Z,3.30
2023-02-16T00:50:54.083Z,3.20
2023-02-16T00:53:21.486Z,3.20
2023-02-16T00:55:48.901Z,3.22
2023-02-16T00:58:30.735Z,3.27
2023-02-16T01:01:08.723Z,3.22
2023-02-16T01:03:36.937Z,3.22
2023-02-16T01:06:23.830Z,3.30
2023-02-16T01:09:12.149Z,3.20
2023-02-16T01:11:39.397Z,3.20
2023-02-16T01:14:09.244Z,3.20
2023-02-16T01:16:41.431Z,3.28
2023-02-16T01:19:12.425Z,3.20
2023-02-16T01:21:39.978Z,3.20
2023-02-16T01:24:08.029Z,3.30
2023-02-16T01:26:42.805Z,3.20
2023-02-16T01:29:21.941Z,3.28
2023-02-16T01:31:50.213Z,3.25
2023-02-16T01:34:17.676Z,3.25
2023-02-16T01:36:47.974Z,3.20
2023-02-16T01:39:19.439Z,3.25
2023-02-16T01:42:31.452Z,3.20
2023-02-16T01:45:09.926Z,3.22
2023-02-16T01:47:42.596Z,3.27
2023-02-16T01:50:26.277Z,3.20
2023-02-16T01:53:14.174Z,3.28
2023-02-16T01:55:49.941Z,3.20
2023-02-16T01:58:37.603Z,3.23
2023-02-16T02:01:05.349Z,3.20
2023-02-16T02:03:53.962Z,3.20
2023-02-16T02:06:35.133Z,3.28
2023-02-16T02:09:17.871Z,3.23
2023-02-16T02:12:10.959Z,3.30
2023-02-16T02:14:40.577Z,3.23
2023-02-16T02:17:17.036Z,3.28
2023-02-16T02:20:45.860Z,3.22
2023-02-16T02:23:47.012Z,3.20
2023-02-16T02:27:01.252Z,3.20
2023-02-16T02:30:09.850Z,3.25
2023-02-16T02:33:16.741Z,3.20
2023-02-16T02:36:33.809Z,3.25
2023-02-16T02:39:48.048Z,3.22
2023-02-16T02:42:50.088Z,3.20
2023-02-16T02:45:53.911Z,3.20
2023-02-16T02:48:21.412Z,3.28
2023-02-16T02:51:12.661Z,3.20
2023-02-16T02:54:12.352Z,3.25
2023-02-16T02:57:26.585Z,3.25
2023-02-16T03:00:25.273Z,3.22
2023-02-16T03:03:24.269Z,3.22
2023-02-16T03:06:12.736Z,3.20
2023-02-16T03:08:46.214Z,3.20
2023-02-16T03:11:42.665Z,3.20
2023-02-16T03:14:34.148Z,3.20
2023-02-16T03:17:33.367Z,3.20
2023-02-16T03:20:25.589Z,3.22
2023-02-16T03:23:11.896Z,3.25
2023-02-16T03:25:59.451Z,3.23
2023-02-16T03:28:48.934Z,3.28
2023-02-16T03:31:25.393Z,3.30
2023-02-16T03:33:54.507Z,3.20
2023-02-16T03:36:30.254Z,3.22
2023-02-16T03:39:01.242Z,3.23
2023-02-16T03:41:35.521Z,3.28
2023-02-16T03:44:02.542Z,3.20
2023-02-16T03:46:30.150Z,3.22
2023-02-16T03:48:57.591Z,3.20
2023-02-16T03:51:25.104Z,3.20
2023-02-16T03:53:52.491Z,3.20
2023-02-16T03:56:20.032Z,3.20
2023-02-16T03:58:47.690Z,3.20
2023-02-16T04:01:15.121Z,3.20
2023-02-16T04:03:42.554Z,3.17
2023-02-16T04:06:10.039Z,3.20
2023-02-16T04:08:37.135Z,3.30
2023-02-16T04:11:24.391Z,3.17
2023-02-16T04:13:51.950Z,3.20
2023-02-16T04:16:19.405Z,3.20
2023-02-16T04:18:46.807Z,3.22
2023-02-16T04:21:14.251Z,3.20
2023-02-16T04:23:41.810Z,3.20
2023-02-16T04:26:08.768Z,3.20
2023-02-16T04:28:36.183Z,3.20
2023-02-16T04:31:03.973Z,3.20
2023-02-16T04:33:31.665Z,3.13
2023-02-16T04:35:58.625Z,3.20
2023-02-16T04:38:26.018Z,3.20
2023-02-16T04:40:53.403Z,3.20
2023-02-16T04:43:20.849Z,3.20
2023-02-16T04:45:48.265Z,3.20
2023-02-16T04:48:15.758Z,3.22
2023-02-16T04:50:43.243Z,3.20
2023-02-16T04:53:10.655Z,3.20
2023-02-16T04:55:38.051Z,3.20
2023-02-16T04:58:05.038Z,3.17
2023-02-16T05:00:33.631Z,3.17
2023-02-16T05:03:02.567Z,3.20
2023-02-16T05:05:31.457Z,3.20
2023-02-16T05:07:58.427Z,3.20
2023-02-16T05:10:25.823Z,3.10
2023-02-16T05:13:11.628Z,3.17
2023-02-16T05:15:39.124Z,3.17
2023-02-16T05:18:06.205Z,3.17
2023-02-16T05:20:51.960Z,3.10
2023-02-16T05:23:19.009Z,3.20
2023-02-16T05:25:45.997Z,3.17
2023-02-16T05:28:12.997Z,3.20
2023-02-16T05:30:40.455Z,3.17
2023-02-16T05:33:07.886Z,3.20
2023-02-16T05:35:35.481Z,3.17
2023-02-16T05:38:02.651Z,3.20
2023-02-16T05:40:30.177Z,3.10
2023-02-16T05:42:57.189Z,3.20
2023-02-16T05:45:24.180Z,3.17
2023-02-16T05:47:53.041Z,3.10
2023-02-16T05:50:20.433Z,3.20
2023-02-16T05:52:49.317Z,3.20
2023-02-16T05:55:16.764Z,3.20
2023-02-16T05:57:43.740Z,3.20
2023-02-16T06:00:12.088Z,3.20
2023-02-16T06:02:39.136Z,3.20
2023-02-16T06:05:07.031Z,3.20
2023-02-16T06:07:33.968Z,3.17
2023-02-16T06:10:01.371Z,3.17
2023-02-16T06:12:28.755Z,3.10
2023-02-16T06:14:55.906Z,3.20
2023-02-16T06:17:23.345Z,3.13
2023-02-16T06:19:50.278Z,3.17
2023-02-16T06:22:17.847Z,3.17
2023-02-16T06:24:45.289Z,3.20
2023-02-16T06:27:12.517Z,3.20
2023-02-16T06:29:39.940Z,3.20
2023-02-16T06:32:07.477Z,3.20
2023-02-16T06:34:34.493Z,3.20
2023-02-16T06:37:01.544Z,3.20
2023-02-16T06:39:28.597Z,3.22
2023-02-16T06:41:55.608Z,3.20
2023-02-16T06:44:22.561Z,3.20
2023-02-16T06:46:49.700Z,3.20
2023-02-16T06:49:19.942Z,3.20
2023-02-16T06:51:49.491Z,3.27
2023-02-16T06:54:17.221Z,3.30
2023-02-16T06:56:44.855Z,3.20
2023-02-16T06:59:13.170Z,3.27
2023-02-16T07:01:40.726Z,3.20
2023-02-16T07:04:08.231Z,3.30
2023-02-16T07:06:35.713Z,3.23
2023-02-16T07:09:03.819Z,3.23
2023-02-16T07:11:31.222Z,3.30
2023-02-16T07:13:58.611Z,3.27
2023-02-16T07:16:25.844Z,3.27
2023-02-16T07:18:53.299Z,3.23
2023-02-16T07:21:20.734Z,3.20
2023-02-16T07:23:48.210Z,3.20
2023-02-16T07:26:15.609Z,3.10
2023-02-16T07:28:43.025Z,3.17
2023-02-16T07:31:14.640Z,3.20
2023-02-16T07:33:42.442Z,3.13
2023-02-16T07:36:11.936Z,3.20
2023-02-16T07:38:42.926Z,3.20
2023-02-16T07:41:11.384Z,3.17
2023-02-16T07:43:39.503Z,3.17
2023-02-16T07:46:07.027Z,3.10
2023-02-16T07:48:34.359Z,3.20
2023-02-16T07:51:01.957Z,3.13
2023-02-16T07:53:29.593Z,3.17
2023-02-16T07:55:57.039Z,3.10
2023-02-16T07:58:27.139Z,3.10
2023-02-16T08:01:17.356Z,3.10
2023-02-16T08:03:44.428Z,3.10
2023-02-16T08:06:11.858Z,3.10
2023-02-16T08:08:39.806Z,3.10
2023-02-16T08:11:23.881Z,3.10
2023-02-16T08:13:52.608Z,3.10
2023-02-16T08:16:26.393Z,3.10
2023-02-16T08:18:59.842Z,3.00
2023-02-16T08:21:32.576Z,2.97
2023-02-16T08:24:06.616Z,3.00
2023-02-16T08:26:41.137Z,3.00
2023-02-16T08:29:10.160Z,3.00
2023-02-16T08:31:38.294Z,3.00
2023-02-16T08:34:06.859Z,3.00
2023-02-16T08:36:38.337Z,3.00
2023-02-16T08:39:14.922Z,2.97
2023-02-16T08:41:45.237Z,3.03
2023-02-16T08:44:15.395Z,3.00
2023-02-16T08:46:46.435Z,2.90
2023-02-16T08:49:18.498Z,2.97
2023-02-16T08:51:52.006Z,2.97
2023-02-16T08:54:27.118Z,2.93
2023-02-16T08:56:55.519Z,3.00
2023-02-16T08:59:27.251Z,3.00
2023-02-16T09:03:55.430Z,2.90
2023-02-16T09:06:23.314Z,2.90
2023-02-16T09:08:56.944Z,2.90
2023-02-16T09:11:25.415Z,2.90
2023-02-16T09:13:53.118Z,2.90
2023-02-16T09:16:24.361Z,3.00
2023-02-16T09:18:52.116Z,2.90
2023-02-16T09:21:25.235Z,2.80
2023-02-16T09:23:56.352Z,2.87
2023-02-16T09:26:25.592Z,2.80
2023-02-16T09:28:53.821Z,2.90
2023-02-16T09:31:30.857Z,2.90
2023-02-16T09:34:10.463Z,2.90
2023-02-16T09:36:38.398Z,2.80
2023-02-16T09:39:07.935Z,2.90
2023-02-16T09:41:46.317Z,2.87
2023-02-16T09:44:48.086Z,2.80
2023-02-16T09:47:31.346Z,2.90
2023-02-16T09:50:14.015Z,2.77
2023-02-16T09:53:08.567Z,2.80
2023-02-16T09:56:16.687Z,2.73
2023-02-16T09:58:59.589Z,2.73
2023-02-16T10:01:46.893Z,2.80
2023-02-16T10:04:47.395Z,2.80
2023-02-16T10:08:02.730Z,2.73
2023-02-16T10:10:50.199Z,2.70
2023-02-16T10:13:47.008Z,2.70
2023-02-16T10:16:25.476Z,2.80
2023-02-16T10:18:56.588Z,2.83
2023-02-16T10:21:31.210Z,2.70
2023-02-16T10:24:05.563Z,2.70
2023-02-16T10:26:42.801Z,2.70
2023-02-16T10:29:22.005Z,2.57
2023-02-16T10:32:16.937Z,2.73
2023-02-16T10:34:47.051Z,2.73
2023-02-16T10:37:56.185Z,2.57
2023-02-16T10:40:56.154Z,2.60
2023-02-16T10:43:48.817Z,2.50
2023-02-16T10:46:26.214Z,2.50
2023-02-16T10:48:55.747Z,2.43
2023-02-16T10:51:32.366Z,2.50
2023-02-16T10:54:15.655Z,2.50
2023-02-16T10:56:59.413Z,2.70
2023-02-16T10:59:45.040Z,2.70
2023-02-16T11:02:24.386Z,2.53
2023-02-16T11:04:57.897Z,2.60
2023-02-16T11:07:28.725Z,2.40
2023-02-16T11:10:02.832Z,2.50
2023-02-16T11:12:42.011Z,2.40
2023-02-16T11:15:16.559Z,2.30
2023-02-16T11:18:07.976Z,2.33
2023-02-16T11:20:46.604Z,2.40
2023-02-16T11:23:33.463Z,2.33
2023-02-16T11:26:12.718Z,2.33
2023-02-16T11:28:45.142Z,2.40
2023-02-16T11:31:39.733Z,2.30
2023-02-16T11:34:49.473Z,2.30
2023-02-16T11:37:48.974Z,2.30
2023-02-16T11:40:30.671Z,2.50
2023-02-16T11:43:01.680Z,2.40
2023-02-16T11:45:34.478Z,2.20
2023-02-16T11:48:28.575Z,2.40
2023-02-16T11:51:15.134Z,2.30
2023-02-16T11:53:44.574Z,2.30
2023-02-16T11:56:24.535Z,2.30
2023-02-16T11:59:21.823Z,2.30
2023-02-16T12:02:40.493Z,2.17
2023-02-16T12:05:47.198Z,2.07
2023-02-16T12:09:13.182Z,2.17
2023-02-16T12:12:13.480Z,2.20
2023-02-16T12:15:21.315Z,2.13
2023-02-16T12:18:29.023Z,2.10
2023-02-16T12:21:42.175Z,2.30
2023-02-16T12:24:35.834Z,2.30
2023-02-16T12:27:16.690Z,2.20
2023-02-16T12:30:11.770Z,2.20
2023-02-16T12:33:07.867Z,2.20
2023-02-16T12:36:07.874Z,2.20
2023-02-16T12:39:03.332Z,2.20
2023-02-16T12:42:34.453Z,2.20
2023-02-16T12:45:19.601Z,2.30
2023-02-16T12:48:37.207Z,2.17
2023-02-16T12:51:16.053Z,2.17
2023-02-16T12:54:39.711Z,2.10
2023-02-16T12:57:17.734Z,2.20
2023-02-16T12:59:56.245Z,2.23
2023-02-16T13:02:53.342Z,2.33
2023-02-16T13:05:32.557Z,2.20
2023-02-16T13:08:30.002Z,2.30
2023-02-16T13:11:24.685Z,2.27
2023-02-16T13:13:59.409Z,2.23
2023-02-16T13:16:53.748Z,2.30
2023-02-16T13:19:21.374Z,2.30
2023-02-16T13:21:54.304Z,2.23
2023-02-16T13:24:46.319Z,2.20
2023-02-16T13:27:50.921Z,2.30
2023-02-16T13:31:12.541Z,2.30
2023-02-16T13:34:32.887Z,2.23
2023-02-16T13:37:17.944Z,2.30
2023-02-16T13:40:10.684Z,2.27
2023-02-16T13:43:13.634Z,2.50
2023-02-16T13:45:46.745Z,2.23
2023-02-16T13:48:31.517Z,2.27
2023-02-16T13:51:16.570Z,2.30
2023-02-16T13:54:01.342Z,2.30
2023-02-16T13:56:36.266Z,2.17
2023-02-16T13:59:38.399Z,2.20
2023-02-16T14:02:13.124Z,2.30
2023-02-16T14:04:40.563Z,2.30
2023-02-16T14:07:07.949Z,2.30
2023-02-16T14:09:37.811Z,2.20
2023-02-16T14:12:18.937Z,2.30
2023-02-16T14:15:00.044Z,2.23
2023-02-16T14:17:37.563Z,2.30
2023-02-16T14:20:13.862Z,2.33
2023-02-16T14:22:43.716Z,2.50
2023-02-16T14:25:22.811Z,2.53
2023-02-16T14:28:21.462Z,2.30
2023-02-16T14:31:22.657Z,2.20
2023-02-16T14:34:12.436Z,2.23
2023-02-16T14:37:16.074Z,2.30
2023-02-16T14:40:06.897Z,2.30
2023-02-16T14:42:36.380Z,2.23
2023-02-16T14:45:21.348Z,2.27
2023-02-16T14:48:37.116Z,2.10
2023-02-16T14:51:59.503Z,2.07
2023-02-16T14:55:07.669Z,2.10
2023-02-16T14:58:31.079Z,2.10
2023-02-16T15:01:16.159Z,2.10
2023-02-16T15:03:54.845Z,2.13
2023-02-16T15:06:43.803Z,1.90
2023-02-16T15:09:33.947Z,2.10
2023-02-16T15:12:24.322Z,2.10
2023-02-16T15:14:59.322Z,2.47
2023-02-16T15:17:35.457Z,2.50
2023-02-16T15:20:54.478Z,2.37
2023-02-16T15:23:34.945Z,2.57
2023-02-16T15:26:14.772Z,2.63
2023-02-16T15:28:44.681Z,2.60
2023-02-16T15:31:18.658Z,2.60
2023-02-16T15:34:07.891Z,2.67
2023-02-16T15:36:43.245Z,2.70
2023-02-16T15:39:48.202Z,2.73
2023-02-16T15:42:28.231Z,2.70
2023-02-16T15:44:56.924Z,2.53
2023-02-16T15:47:27.197Z,2.60
2023-02-16T15:49:55.007Z,2.60
2023-02-16T15:52:37.102Z,2.60
2023-02-16T15:55:09.058Z,2.60
2023-02-16T15:57:40.535Z,2.47
2023-02-16T16:00:20.774Z,2.63
2023-02-16T16:03:00.491Z,2.43
2023-02-16T16:05:36.119Z,2.53
2023-02-16T16:08:04.544Z,2.57
2023-02-16T16:10:39.080Z,2.50
2023-02-16T16:13:17.988Z,2.60
2023-02-16T16:15:49.244Z,2.60
2023-02-16T16:18:51.034Z,2.60
2023-02-16T16:21:33.938Z,2.57
2023-02-16T16:24:09.730Z,2.60
2023-02-16T16:26:55.481Z,2.60
2023-02-16T16:29:47.568Z,2.70
2023-02-16T16:32:29.641Z,2.70
2023-02-16T16:34:57.429Z,2.67
2023-02-16T16:37:37.524Z,2.60
2023-02-16T16:40:18.174Z,2.70
2023-02-16T16:43:19.066Z,2.60
2023-02-16T16:45:54.352Z,2.60
2023-02-16T16:48:35.733Z,2.60
2023-02-16T16:51:22.596Z,2.70
2023-02-16T16:54:24.742Z,2.77
2023-02-16T16:56:52.444Z,2.60
2023-02-16T16:59:19.436Z,2.70
2023-02-16T17:01:49.889Z,2.60
2023-02-16T17:04:17.353Z,2.73
2023-02-16T17:06:44.819Z,2.70
2023-02-16T17:09:11.804Z,2.63
2023-02-16T17:11:39.006Z,2.70
2023-02-16T17:14:16.992Z,2.60
2023-02-16T17:16:48.406Z,2.70
2023-02-16T17:19:22.947Z,2.67
2023-02-16T17:21:50.273Z,2.70
2023-02-16T17:24:18.514Z,2.70
2023-02-16T17:26:45.978Z,2.70
2023-02-16T17:29:13.380Z,2.70
2023-02-16T17:31:40.880Z,2.90
2023-02-16T17:34:08.593Z,2.80
2023-02-16T17:36:37.076Z,2.93
2023-02-16T17:39:04.802Z,2.83
2023-02-16T17:41:32.345Z,2.77
2023-02-16T17:43:59.810Z,2.70
2023-02-16T17:46:28.209Z,2.80
2023-02-16T17:48:55.700Z,2.80
2023-02-16T17:51:25.705Z,2.73
2023-02-16T17:53:53.451Z,2.80
2023-02-16T17:56:24.515Z,2.80
2023-02-16T17:58:52.274Z,2.70
2023-02-16T18:01:20.814Z,2.80
2023-02-16T18:03:48.571Z,2.80
2023-02-16T18:06:24.381Z,2.90
2023-02-16T18:08:52.097Z,2.80
2023-02-16T18:11:19.262Z,2.80
2023-02-16T18:13:46.747Z,2.83
2023-02-16T18:16:21.605Z,2.80
2023-02-16T18:18:48.815Z,2.73
2023-02-16T18:21:15.899Z,2.90
2023-02-16T18:23:43.020Z,2.77
2023-02-16T18:26:15.309Z,2.70
2023-02-16T18:28:43.447Z,2.70
2023-02-16T18:31:11.730Z,2.77
2023-02-16T18:33:39.097Z,2.87
2023-02-16T18:36:07.247Z,2.70
2023-02-16T18:38:34.890Z,2.80
2023-02-16T18:41:02.044Z,2.80
2023-02-16T18:43:29.197Z,2.80
2023-02-16T18:45:56.351Z,2.77
2023-02-16T18:48:23.992Z,2.80
2023-02-16T18:50:51.446Z,2.77
2023-02-16T18:53:18.580Z,2.80
2023-02-16T18:55:45.599Z,2.73
2023-02-16T18:58:15.080Z,2.73
2023-02-16T19:00:42.643Z,2.80
2023-02-16T19:03:10.140Z,2.80
2023-02-16T19:05:37.703Z,2.80
2023-02-16T19:08:05.051Z,2.70
2023-02-16T19:10:33.335Z,2.70
2023-02-16T19:13:01.914Z,2.77
2023-02-16T19:15:29.317Z,2.73
2023-02-16T19:17:56.565Z,2.70
2023-02-16T19:20:25.505Z,2.70
2023-02-16T19:22:53.360Z,2.77
2023-02-16T19:25:21.178Z,2.77
2023-02-16T19:27:48.870Z,2.80
2023-02-16T19:30:16.427Z,2.80
2023-02-16T19:32:46.568Z,2.80
2023-02-16T19:35:14.112Z,2.73
2023-02-16T19:37:41.511Z,2.77
2023-02-16T19:40:11.743Z,2.80
2023-02-16T19:42:39.662Z,2.80
2023-02-16T19:45:07.751Z,2.80
2023-02-16T19:47:35.216Z,2.73
2023-02-16T19:50:02.653Z,2.80
2023-02-16T19:52:30.116Z,2.87
2023-02-16T19:54:57.115Z,2.80
2023-02-16T19:57:24.532Z,2.83
2023-02-16T19:59:51.936Z,2.70
2023-02-16T20:02:19.210Z,2.70
2023-02-16T20:04:46.278Z,2.80
2023-02-16T20:07:13.289Z,2.73
2023-02-16T20:09:40.297Z,2.70
2023-02-16T20:12:08.133Z,2.77
2023-02-16T20:14:35.634Z,2.70
2023-02-16T20:17:03.076Z,2.67
2023-02-16T20:19:30.504Z,2.80
2023-02-16T20:21:57.956Z,2.70
2023-02-16T20:24:24.940Z,2.80
2023-02-16T20:26:52.202Z,2.70
2023-02-16T20:29:20.720Z,2.70
2023-02-16T20:31:55.097Z,2.80
2023-02-16T20:34:25.974Z,2.80
2023-02-16T20:36:54.201Z,2.73
2023-02-16T20:39:21.830Z,2.70
2023-02-16T20:41:49.054Z,2.80
2023-02-16T20:44:16.800Z,2.80
2023-02-16T20:46:45.596Z,2.70
2023-02-16T20:49:13.425Z,2.77
2023-02-16T20:51:41.273Z,2.80
2023-02-16T20:54:09.337Z,2.77
2023-02-16T20:59:43.983Z,2.80
2023-02-16T21:02:12.383Z,2.73
2023-02-16T21:04:40.682Z,2.73
2023-02-16T21:07:08.903Z,2.80
2023-02-16T21:09:35.895Z,2.73
2023-02-16T21:12:02.998Z,2.77
2023-02-16T21:14:30.088Z,2.70
2023-02-16T21:16:57.727Z,2.70
2023-02-16T21:19:25.206Z,2.80
2023-02-16T21:21:52.918Z,2.80
2023-02-16T21:24:19.974Z,2.80
2023-02-16T21:26:47.626Z,2.80
2023-02-16T21:29:14.866Z,2.73
2023-02-16T21:31:41.949Z,2.73
2023-02-16T21:34:10.404Z,2.70
2023-02-16T21:36:38.721Z,2.77
2023-02-16T21:39:06.338Z,2.80
2023-02-16T21:41:34.098Z,2.77
2023-02-16T21:44:16.665Z,2.77
2023-02-16T21:46:47.465Z,2.70
2023-02-16T21:49:19.815Z,2.77
2023-02-16T21:51:48.910Z,2.73
2023-02-16T21:54:39.392Z,2.80
2023-02-16T21:57:06.459Z,2.80
2023-02-16T21:59:33.970Z,2.90
2023-02-16T22:02:01.392Z,2.90
2023-02-16T22:04:28.379Z,2.77
2023-02-16T22:06:56.016Z,2.80
2023-02-16T22:09:24.077Z,2.77
2023-02-16T22:11:52.160Z,2.83
2023-02-16T22:14:19.390Z,2.77
2023-02-16T22:16:48.778Z,2.73
2023-02-16T22:19:18.924Z,2.80
2023-02-16T22:21:48.410Z,2.80
2023-02-16T22:24:17.820Z,2.80
2023-02-16T22:26:48.708Z,2.80
2023-02-16T22:29:16.365Z,2.80
2023-02-16T22:31:49.797Z,2.80
2023-02-16T22:34:21.179Z,2.80
2023-02-16T22:36:49.133Z,2.80
2023-02-16T22:39:18.275Z,2.73
2023-02-16T22:41:45.926Z,2.77
2023-02-16T22:44:15.639Z,2.80
2023-02-16T22:46:43.631Z,2.77
2023-02-16T22:49:10.888Z,2.80
2023-02-16T22:51:38.568Z,2.80
2023-02-16T22:54:06.575Z,2.70
2023-02-16T22:56:34.952Z,2.80
2023-02-16T22:59:02.144Z,2.70
2023-02-16T23:01:31.141Z,2.83
2023-02-16T23:04:00.937Z,2.80
2023-02-16T23:06:36.393Z,2.83
2023-02-16T23:09:18.497Z,2.77
2023-02-16T23:11:46.378Z,2.90
2023-02-16T23:14:17.514Z,2.73
2023-02-16T23:16:52.337Z,2.90
2023-02-16T23:19:26.706Z,2.70
2023-02-16T23:21:54.368Z,2.83
2023-02-16T23:24:23.557Z,2.87
2023-02-16T23:26:52.467Z,2.73
2023-02-16T23:29:19.567Z,2.70
2023-02-16T23:31:47.539Z,2.80
2023-02-16T23:34:16.075Z,2.80
2023-02-16T23:36:43.803Z,2.77
2023-02-16T23:39:16.260Z,2.77
2023-02-16T23:41:43.921Z,2.70
2023-02-16T23:44:14.061Z,2.80
2023-02-16T23:46:41.526Z,2.73
2023-02-16T23:49:09.029Z,2.80
2023-02-16T23:51:36.479Z,2.80
2023-02-16T23:54:03.601Z,2.80
2023-02-16T23:56:31.135Z,2.80
2023-02-16T23:59:00.543Z,2.83
